METAR stanice u blizini

 

LYBE - Beograd / Surčin, Srbija
Ažurirano: 31/03/2020 16:00
Vedro
Vedro
 Pravac vetra S
Vetar: S 15 km/h
Temperatura: 7°C
Osećaj hladnoće: 4°C
Tačka rose: -10°C
Vlažnost: 29%
Pritisak: 1021 hPa
Pregled: Vedro
Vidljivost: greater than 10 km
2020/03/31 14:00 LYBE 311400Z 35008KT 320V020 CAVOK 07/M10 Q1021 NOSIG
LYBT - Beograd / Batajnica, Srbija
Ažurirano: 31/03/2020 16:00
Vedro
Vedro
 Pravac vetra SZ
Vetar: SZ 19 km/h
Temperatura: 8°C
Osećaj hladnoće: 4°C
Tačka rose: -10°C
Vlažnost: 27%
Pritisak: 1021 hPa
Pregled: Vedro
Vidljivost: greater than 10 km
2020/03/31 14:00 LYBT 311400Z 32010KT 280V350 CAVOK 08/M10 Q1021 NOSIG
LYVR - Vršac, Srbija
Ažurirano: 31/03/2020 16:00
Vedro
Vedro
 Pravac vetra S
Vetar: S 7 km/h
Temperatura: 8°C
Osećaj hladnoće: 7°C
Tačka rose: -7°C
Vlažnost: 34%
Pritisak: 1020 hPa
Pregled: Vedro
Vidljivost: greater than 10 km
2020/03/31 14:00 LYVR 311400Z 36004KT 250V060 CAVOK 08/M07 Q1020 NOSIG
 
LYKV - Lađevci, Srbija
Ažurirano: 31/03/2020 16:00
Mostly Cloudy
Mostly Cloudy
 Pravac vetra SZ
Vetar: SZ 20 km/h
Temperatura: 3°C
Osećaj hladnoće: -2°C
Tačka rose: -7°C
Vlažnost: 48%
Pritisak: 1022 hPa
Oblaci: Mostly Cloudy
Vidljivost: 10 km
Cloud details: Mostly Cloudy 1006 m
2020/03/31 14:00 LYKV 311400Z 31011KT 280V340 9999 BKN033 03/M07 Q1022 NOSIG
LYNI - Niš, Srbija
Ažurirano: 31/03/2020 16:00
Few Clouds
Few Clouds
 Pravac vetra SZ
Vetar: SZ 30 km/h
Temperatura: 5°C
Osećaj hladnoće: 0°C
Tačka rose: -10°C
Vlažnost: 33%
Pritisak: 1020 hPa
Oblaci: Few Clouds
Vidljivost: 10 km
Cloud details: Few Clouds 1219 m
2020/03/31 14:00 LYNI 311400Z 32016KT 9999 FEW040 05/M10 Q1020 NOSIG
BKPR - Priština, Srbija
Ažurirano: 31/03/2020 16:00
Mostly Cloudy
Mostly Cloudy
 Pravac vetra SSI
Vetar: SSI 26 km/h
Temperatura: 4°C
Osećaj hladnoće: -1°C
Tačka rose: -6°C
Vlažnost: 48%
Pritisak: 1016 hPa
Oblaci: Mostly Cloudy
Vidljivost: 10 km
Cloud details: Partly Cloudy 914 m
Mostly Cloudy 1524 m
2020/03/31 14:00 BKPR 311400Z 02014KT 9999 SCT030 BKN050 04/M06 Q1016 NOSIG RMK 17010095
 
LHPP - Pecs / Pogany, Hungary
Ažurirano: 31/03/2020 15:45
Vedro
Vedro
 Pravac vetra SI
Vetar: SI 22 km/h
Temperatura: 5°C
Osećaj hladnoće: 1°C
Tačka rose: -9°C
Vlažnost: 36%
Pritisak: 1022 hPa
Pregled: Vedro
Vidljivost: greater than 10 km
2020/03/31 13:45 LHPP 311345Z 05012KT CAVOK 05/M09 Q1022
LHUD - Szeged, Hungary
Ažurirano: 04/07/2019 01:45
NOT Current
Vedro
Vedro
 Pravac vetra S
Vetar: S 7 km/h
Temperatura: 18°C
Tačka rose: 13°C
Vlažnost: 73%
Pritisak: 1019 hPa
Pregled: Vedro
Vidljivost: greater than 10 km
2019/07/03 23:45 LHUD 032345Z 35004KT CAVOK 18/13 Q1019
LRTR - Timisoara, Romania
Ažurirano: 31/03/2020 16:00
Vedro
Vedro
 Pravac vetra SSI
Vetar: SSI 22 km/h
Temperatura: 8°C
Osećaj hladnoće: 4°C
Tačka rose: -13°C
Vlažnost: 21%
Pritisak: 1020 hPa
Pregled: Vedro
Vidljivost: greater than 10 km
2020/03/31 14:00 LRTR 311400Z 02012KT CAVOK 08/M13 Q1020
 
LRCV - Craiova, Romania
Ažurirano: 31/03/2020 16:00
Slaba kiša, Oblačno
Slaba kiša, Oblačno
 Pravac vetra ISI
Vetar: ISI 24 km/h
Temperatura: 1°C
Osećaj hladnoće: -4°C
Tačka rose: -1°C
Vlažnost: 87%
Pritisak: 1020 hPa
Pregled: Light Rain
Oblaci: Oblačno
Vidljivost: 8 km
Cloud details: Mostly Cloudy 579 m
Oblačno 1067 m
2020/03/31 14:00 LRCV 311400Z 07013KT 8000 -RA BKN019 OVC035 01/M01 Q1020 R27/29//95
LBSF - Sofia, Bulgaria
Ažurirano: 31/03/2020 16:00
Mostly Cloudy
Mostly Cloudy
 Pravac vetra ZSZ
Vetar: ZSZ 7 km/h
Temperatura: 8°C
Osećaj hladnoće: 7°C
Tačka rose: -4°C
Vlažnost: 43%
Pritisak: 1015 hPa
Oblaci: Mostly Cloudy
Vidljivost: 10 km
Cloud details: Mostly Cloudy 1433 m
2020/03/31 14:00 LBSF 311400Z 30004KT 250V060 9999 BKN047 08/M04 Q1015 NOSIG
LWSK - Skoplje, Makedonija
Ažurirano: 31/03/2020 16:00
Vedro
Vedro
 Pravac vetra SZ
Vetar: SZ 9 km/h
Temperatura: 11°C
Tačka rose: 0°C
Vlažnost: 47%
Pritisak: 1015 hPa
Pregled: Vedro
Vidljivost: greater than 10 km
2020/03/31 14:00 LWSK 311400Z 32005KT 280V360 CAVOK 11/00 Q1015 NOSIG
 
LYPG - Podgorica, Crna Gora
Ažurirano: 31/03/2020 16:00
Slaba kiša, Oblačno
Slaba kiša, Oblačno
 Pravac vetra S
Vetar: S 26 km/h
Temperatura: 13°C
Tačka rose: 4°C
Vlažnost: 55%
Pritisak: 1014 hPa
Pregled: Light Rain
Oblaci: Oblačno
Vidljivost: 10 km
Cloud details: Partly Cloudy 1219 m
Oblačno 2438 m
2020/03/31 14:00 LYPG 311400Z 36014KT 9999 -RA SCT040 OVC080 13/04 Q1014 NOSIG
LQSA - Sarajevo, Bosna i Hercegovina
Ažurirano: 31/03/2020 16:00
Mostly Cloudy
Mostly Cloudy
 Pravac vetra S
Vetar: S 7 km/h
Temperatura: 1°C
Osećaj hladnoće: -2°C
Tačka rose: -4°C
Vlažnost: 70%
Pritisak: 1019 hPa
Oblaci: Mostly Cloudy
Vidljivost: 10 km
Cloud details: Few Clouds 610 m
Mostly Cloudy 1219 m
2020/03/31 14:00 LQSA 311400Z 36004KT 310V080 9999 FEW020 BKN040 01/M04 Q1019 NOSIG
LDOS - Osijek, Hrvatksa
Ažurirano: 31/03/2020 16:00
Few Clouds
Few Clouds
 Pravac vetra SI
Vetar: SI 17 km/h
Temperatura: 8°C
Osećaj hladnoće: 5°C
Tačka rose: -9°C
Vlažnost: 29%
Pritisak: 1022 hPa
Oblaci: Few Clouds
Vidljivost: 10 km
Cloud details: Few Clouds 1311 m
2020/03/31 14:00 LDOS 311400Z 05009KT 360V080 9999 FEW043 08/M09 Q1022